Time;durP1;ratioP1;P1;durP2;ratioP2;P2;SDS_P1;SDS_P2;PMS_P1;PMS_P2;Temp;Humidity;BMP_temperature;BMP_pressure;BME280_temperature;BME280_humidity;BME280_pressure;Samples;Min_cycle;Max_cycle;Signal;HPM_P1;HPM_P2
2022/08/16 00:00:57;;;;;;;123.50;62.20;;;14.70;93.50;;;;;;4180801;28;20204;-69
2022/08/16 00:02:58;;;;;;;16.33;15.30;;;14.70;94.00;;;;;;4181480;28;20211;-69
2022/08/16 00:05:00;;;;;;;17.00;15.90;;;14.60;94.90;;;;;;4182084;28;20179;-69
2022/08/16 00:07:01;;;;;;;71.80;66.80;;;14.60;95.30;;;;;;4181524;28;20236;-69
2022/08/16 00:09:01;;;;;;;51.23;46.83;;;14.50;95.30;;;;;;4181231;28;20253;-69
2022/08/16 00:11:03;;;;;;;30.80;27.97;;;14.60;95.60;;;;;;4179644;28;20184;-68
2022/08/16 00:13:06;;;;;;;93.67;51.97;;;14.70;95.70;;;;;;4181177;28;20208;-68
2022/08/16 00:15:12;;;;;;;40.57;32.67;;;14.70;96.20;;;;;;4180806;28;20238;-69
2022/08/16 00:17:13;;;;;;;13.17;12.33;;;14.80;96.00;;;;;;4181122;28;20524;-69
2022/08/16 00:19:18;;;;;;;27.50;25.57;;;14.70;96.10;;;;;;4181184;28;20195;-69
2022/08/16 00:21:18;;;;;;;18.50;17.37;;;14.80;95.40;;;;;;4180722;28;20180;-69
2022/08/16 00:23:19;;;;;;;162.47;112.03;;;14.80;95.50;;;;;;4180920;28;20243;-69
2022/08/16 00:25:22;;;;;;;107.00;30.63;;;15.00;95.00;;;;;;4180839;28;20192;-69
2022/08/16 00:27:22;;;;;;;22.20;20.63;;;15.10;94.00;;;;;;4181062;28;20184;-70
2022/08/16 00:29:23;;;;;;;24.43;22.93;;;15.10;93.20;;;;;;4181115;28;20210;-70
2022/08/16 00:31:24;;;;;;;31.70;29.87;;;15.00;93.80;;;;;;4180523;28;20210;-69
2022/08/16 00:33:24;;;;;;;41.03;38.53;;;14.90;94.30;;;;;;4179762;28;20208;-70
2022/08/16 00:35:29;;;;;;;33.23;31.37;;;14.90;95.00;;;;;;4181987;28;20184;-70
2022/08/16 00:37:30;;;;;;;60.97;56.33;;;15.00;95.00;;;;;;4181083;28;20189;-69
2022/08/16 00:39:31;;;;;;;23.93;22.67;;;15.00;94.70;;;;;;4179654;28;20712;-70
2022/08/16 00:41:33;;;;;;;159.13;82.53;;;15.20;94.40;;;;;;4179906;28;20188;-70
2022/08/16 00:43:34;;;;;;;26.33;24.83;;;15.30;94.00;;;;;;4179261;28;20208;-70
2022/08/16 00:45:47;;;;;;;28.43;26.80;;;15.30;94.20;;;;;;4165659;28;20187;-69
2022/08/16 00:47:47;;;;;;;24.47;23.07;;;15.40;93.80;;;;;;4165051;28;20181;-70
2022/08/16 00:49:48;;;;;;;118.80;60.83;;;15.50;93.70;;;;;;4164914;28;20187;-69
2022/08/16 00:51:50;;;;;;;51.40;48.63;;;15.50;93.50;;;;;;4164083;28;20263;-69
2022/08/16 00:53:52;;;;;;;133.97;72.13;;;15.50;92.40;;;;;;4165436;28;20298;-70
2022/08/16 00:55:56;;;;;;;393.40;125.60;;;15.40;93.10;;;;;;4164752;28;20195;-70
2022/08/16 00:57:57;;;;;;;41.37;39.03;;;15.50;92.60;;;;;;4164538;28;20212;-70
2022/08/16 01:00:00;;;;;;;32.43;30.53;;;15.40;92.20;;;;;;4165287;28;20191;-70
2022/08/16 01:02:04;;;;;;;82.83;77.70;;;15.40;92.90;;;;;;4164254;28;20193;-70
2022/08/16 01:04:06;;;;;;;57.37;54.23;;;15.40;92.80;;;;;;4164685;28;20212;-70
2022/08/16 01:06:08;;;;;;;37.13;35.30;;;15.30;92.50;;;;;;4164510;28;20287;-70
2022/08/16 01:08:12;;;;;;;162.03;77.47;;;15.30;92.40;;;;;;4163310;28;20189;-70
2022/08/16 01:10:12;;;;;;;42.43;40.13;;;15.40;92.30;;;;;;4148931;28;20289;-70
2022/08/16 01:12:15;;;;;;;37.47;35.60;;;15.30;92.40;;;;;;4168055;28;20184;-69
2022/08/16 01:14:22;;;;;;;157.00;85.37;;;15.30;92.70;;;;;;4168236;28;20199;-69
2022/08/16 01:16:25;;;;;;;123.27;57.33;;;15.30;92.80;;;;;;4168266;28;20184;-70
2022/08/16 01:18:34;;;;;;;54.97;52.03;;;15.40;92.70;;;;;;4167872;28;20196;-71
2022/08/16 01:20:42;;;;;;;38.67;36.60;;;15.50;92.40;;;;;;4179594;28;20180;-69
2022/08/16 01:23:09;;;;;;;63.07;58.73;;;15.40;92.50;;;;;;4184489;28;20695;-70
2022/08/16 01:25:19;;;;;;;34.50;32.63;;;15.40;92.50;;;;;;4184411;28;20630;-70
2022/08/16 01:27:30;;;;;;;30.93;29.33;;;15.30;93.00;;;;;;4184452;28;20625;-70
2022/08/16 01:29:41;;;;;;;30.73;29.00;;;15.40;92.90;;;;;;4184279;28;20172;-71
2022/08/16 01:31:41;;;;;;;38.17;36.10;;;15.50;92.50;;;;;;4185306;28;20183;-70
2022/08/16 01:33:42;;;;;;;45.83;43.27;;;15.40;92.60;;;;;;4184547;28;20257;-70
2022/08/16 01:35:51;;;;;;;37.23;35.23;;;15.50;92.50;;;;;;4184451;28;20183;-69
2022/08/16 01:37:55;;;;;;;34.73;32.90;;;15.40;92.90;;;;;;4185066;28;20636;-69
2022/08/16 01:39:56;;;;;;;37.40;35.30;;;15.50;92.40;;;;;;4183926;28;20188;-69
2022/08/16 01:41:56;;;;;;;37.13;35.23;;;15.40;92.80;;;;;;4183925;28;20177;-69
2022/08/16 01:43:57;;;;;;;43.63;40.97;;;15.40;92.50;;;;;;4183125;28;20220;-70
2022/08/16 01:46:01;;;;;;;39.10;37.03;;;15.50;92.70;;;;;;4184464;28;20202;-69
2022/08/16 01:48:02;;;;;;;394.47;145.83;;;15.50;92.00;;;;;;4184469;28;20223;-71
2022/08/16 01:50:05;;;;;;;59.70;56.13;;;15.50;92.30;;;;;;4183081;28;20275;-71
2022/08/16 01:52:10;;;;;;;136.53;81.07;;;15.50;92.40;;;;;;4183632;28;20255;-70
2022/08/16 01:54:11;;;;;;;35.43;33.70;;;15.60;92.20;;;;;;4184885;28;20214;-70
2022/08/16 01:56:12;;;;;;;248.73;139.10;;;15.60;91.90;;;;;;4184321;28;20180;-71
2022/08/16 01:58:15;;;;;;;74.13;70.00;;;15.50;92.50;;;;;;4182471;28;20225;-70
2022/08/16 02:00:17;;;;;;;30.17;28.57;;;15.50;92.20;;;;;;4183840;28;20272;-70
2022/08/16 02:02:18;;;;;;;71.83;67.37;;;15.40;92.60;;;;;;4183997;28;20494;-70
2022/08/16 02:04:21;;;;;;;45.33;42.77;;;15.40;92.80;;;;;;4183729;28;20208;-71
2022/08/16 02:06:21;;;;;;;55.27;51.53;;;15.30;92.90;;;;;;4184447;28;20191;-71
2022/08/16 02:08:22;;;;;;;28.30;26.60;;;15.30;93.20;;;;;;4177222;28;20263;-71
2022/08/16 02:10:24;;;;;;;41.07;38.90;;;15.30;93.40;;;;;;4183063;28;20265;-70
2022/08/16 02:12:29;;;;;;;31.33;29.67;;;15.30;93.50;;;;;;4184287;28;20740;-70
2022/08/16 02:14:30;;;;;;;37.63;35.37;;;15.10;93.70;;;;;;4183903;28;20188;-71
2022/08/16 02:16:30;;;;;;;32.73;30.83;;;15.10;94.20;;;;;;4183962;28;20207;-70
2022/08/16 02:18:31;;;;;;;41.17;38.93;;;15.10;94.10;;;;;;4182577;28;20887;-70
2022/08/16 02:20:36;;;;;;;85.57;59.00;;;15.00;94.30;;;;;;4182409;28;20200;-71
2022/08/16 02:22:36;;;;;;;19.47;18.27;;;15.00;94.30;;;;;;4182710;28;20649;-70
2022/08/16 02:24:39;;;;;;;18.70;17.37;;;14.90;94.40;;;;;;4182095;28;20258;-70
2022/08/16 02:26:39;;;;;;;172.90;59.13;;;14.80;94.80;;;;;;4183174;28;20280;-70
2022/08/16 02:28:41;;;;;;;15.37;14.47;;;14.70;95.00;;;;;;4183885;28;20183;-70
2022/08/16 02:30:42;;;;;;;32.73;30.63;;;14.60;95.20;;;;;;4182862;28;20677;-71
2022/08/16 02:32:43;;;;;;;148.83;101.50;;;14.40;96.20;;;;;;4183580;28;20295;-70
2022/08/16 02:34:44;;;;;;;45.67;43.13;;;14.40;96.20;;;;;;4183804;28;20245;-70
2022/08/16 02:36:44;;;;;;;18.13;16.90;;;14.40;96.60;;;;;;4183775;28;20714;-70
2022/08/16 02:38:46;;;;;;;50.50;45.40;;;14.40;96.80;;;;;;4183809;28;20326;-70
2022/08/16 02:40:47;;;;;;;9.90;9.17;;;14.30;96.40;;;;;;4180682;28;20203;-70
2022/08/16 02:42:49;;;;;;;31.30;29.13;;;14.30;96.90;;;;;;4182487;28;20204;-70
2022/08/16 02:44:50;;;;;;;33.53;31.47;;;14.20;96.90;;;;;;4182789;28;20283;-70
2022/08/16 02:46:50;;;;;;;131.30;86.97;;;14.20;97.10;;;;;;4170223;28;20650;-71
2022/08/16 02:48:51;;;;;;;36.80;29.73;;;14.20;97.60;;;;;;4166126;28;20216;-70
2022/08/16 02:50:52;;;;;;;12.53;11.73;;;14.10;98.30;;;;;;4165922;28;20445;-70
2022/08/16 02:52:53;;;;;;;40.60;36.57;;;14.10;98.60;;;;;;4167054;28;20712;-71
2022/08/16 02:54:54;;;;;;;41.50;39.03;;;14.00;99.30;;;;;;4167309;28;20263;-70
2022/08/16 02:56:54;;;;;;;372.67;85.27;;;14.00;99.50;;;;;;4166919;28;20307;-70
2022/08/16 02:58:56;;;;;;;64.27;60.13;;;13.90;99.90;;;;;;4165620;28;20541;-71
2022/08/16 03:00:57;;;;;;;13.00;12.00;;;14.00;99.90;;;;;;4166516;28;20200;-70
2022/08/16 03:02:57;;;;;;;96.73;84.67;;;14.00;99.90;;;;;;4166934;28;20209;-71
2022/08/16 03:04:59;;;;;;;67.10;63.43;;;14.00;99.90;;;;;;4167040;28;20177;-70
2022/08/16 03:06:59;;;;;;;17.17;16.00;;;14.00;99.90;;;;;;4167548;28;20281;-72
2022/08/16 03:09:01;;;;;;;63.03;58.77;;;13.90;99.90;;;;;;4167077;28;20189;-70
2022/08/16 03:11:02;;;;;;;31.57;29.23;;;13.90;99.90;;;;;;4165006;28;20254;-70
2022/08/16 03:13:03;;;;;;;65.83;61.17;;;13.80;99.90;;;;;;4166254;28;20205;-72
2022/08/16 03:15:06;;;;;;;12.73;11.67;;;13.80;99.90;;;;;;4167377;28;20554;-70
2022/08/16 03:17:07;;;;;;;82.50;78.17;;;13.70;99.90;;;;;;4166562;28;20572;-71
2022/08/16 03:19:08;;;;;;;59.47;55.43;;;13.60;99.90;;;;;;4165376;28;20188;-71
2022/08/16 03:21:08;;;;;;;12.37;11.47;;;13.60;99.90;;;;;;4166086;28;20307;-70
2022/08/16 03:23:09;;;;;;;23.30;21.53;;;13.60;99.90;;;;;;4166129;28;20298;-70
2022/08/16 03:25:13;;;;;;;58.33;54.63;;;13.50;99.90;;;;;;4173354;28;20180;-71
2022/08/16 03:27:14;;;;;;;16.77;15.57;;;13.50;99.90;;;;;;4183154;28;20259;-71
2022/08/16 03:29:14;;;;;;;22.03;20.57;;;13.40;99.90;;;;;;4182976;28;20555;-70
2022/08/16 03:31:15;;;;;;;15.53;14.43;;;13.40;99.90;;;;;;4182370;28;20203;-70
2022/08/16 03:33:16;;;;;;;45.50;42.83;;;13.30;99.90;;;;;;4182236;28;20208;-71
2022/08/16 03:35:20;;;;;;;15.40;14.33;;;13.30;99.90;;;;;;4182654;28;20188;-70
2022/08/16 03:37:21;;;;;;;15.17;14.07;;;13.30;99.90;;;;;;4181444;28;20205;-70
2022/08/16 03:39:22;;;;;;;47.47;39.37;;;13.20;99.90;;;;;;4182812;28;20188;-70
2022/08/16 03:41:22;;;;;;;47.87;44.37;;;13.10;99.90;;;;;;4181270;28;20195;-71
2022/08/16 03:43:23;;;;;;;47.87;45.27;;;13.10;99.90;;;;;;4182872;28;20219;-70
2022/08/16 03:45:25;;;;;;;15.97;14.73;;;13.10;99.90;;;;;;4182687;28;20203;-70
2022/08/16 03:47:27;;;;;;;11.70;8.53;;;13.10;99.90;;;;;;4181516;28;20195;-70
2022/08/16 03:49:28;;;;;;;16.07;14.47;;;13.10;99.90;;;;;;4182314;28;20176;-71
2022/08/16 03:51:29;;;;;;;14.90;13.67;;;13.00;99.90;;;;;;4181191;28;20230;-71
2022/08/16 03:53:30;;;;;;;10.60;9.60;;;13.00;99.90;;;;;;4183012;28;20402;-70
2022/08/16 03:55:31;;;;;;;45.60;42.93;;;12.90;99.90;;;;;;4181506;28;20192;-70
2022/08/16 03:57:31;;;;;;;18.23;16.93;;;12.90;99.90;;;;;;4181672;28;20286;-70
2022/08/16 03:59:32;;;;;;;12.17;11.17;;;12.90;99.90;;;;;;4180268;28;20188;-70
2022/08/16 04:01:32;;;;;;;13.30;12.20;;;12.90;99.90;;;;;;4178899;28;20189;-71
2022/08/16 04:03:33;;;;;;;21.07;19.47;;;12.80;99.90;;;;;;4181483;28;20673;-71
2022/08/16 04:05:40;;;;;;;16.83;15.40;;;12.80;99.90;;;;;;4181357;28;20242;-70
2022/08/16 04:07:40;;;;;;;9.90;9.03;;;12.80;99.90;;;;;;4180061;28;20173;-70
2022/08/16 04:09:41;;;;;;;14.63;13.53;;;12.70;99.90;;;;;;4181141;28;20211;-71
2022/08/16 04:11:41;;;;;;;11.27;10.20;;;12.70;99.90;;;;;;4180606;28;20180;-70
2022/08/16 04:13:43;;;;;;;14.20;12.87;;;12.60;99.90;;;;;;4181350;28;20230;-70
2022/08/16 04:15:43;;;;;;;29.87;27.47;;;12.50;99.90;;;;;;4180103;28;20242;-71
2022/08/16 04:17:44;;;;;;;9.57;8.20;;;12.50;99.90;;;;;;4179597;28;20649;-70
2022/08/16 04:19:45;;;;;;;14.97;13.77;;;12.60;99.90;;;;;;4179598;28;20897;-71
2022/08/16 04:21:45;;;;;;;9.67;8.90;;;12.50;99.90;;;;;;4180913;28;20188;-71
2022/08/16 04:23:46;;;;;;;11.50;10.37;;;12.50;99.90;;;;;;4173422;28;20217;-71
2022/08/16 04:25:46;;;;;;;9.83;8.23;;;12.50;99.90;;;;;;4167747;28;20228;-70
2022/08/16 04:27:47;;;;;;;25.10;23.10;;;12.50;99.90;;;;;;4180354;28;20195;-71
2022/08/16 04:29:47;;;;;;;19.30;17.70;;;12.50;99.90;;;;;;4181605;28;20192;-71
2022/08/16 04:31:50;;;;;;;8.83;7.93;;;12.50;99.90;;;;;;4180180;28;20180;-71
2022/08/16 04:33:51;;;;;;;30.33;28.43;;;12.40;99.90;;;;;;4180702;28;20685;-70
2022/08/16 04:35:55;;;;;;;23.37;21.73;;;12.40;99.90;;;;;;4181531;28;20256;-70
2022/08/16 04:37:56;;;;;;;18.10;16.77;;;12.50;99.90;;;;;;4180323;28;20194;-71
2022/08/16 04:39:57;;;;;;;13.83;12.47;;;12.50;99.90;;;;;;4181292;28;20188;-70
2022/08/16 04:41:58;;;;;;;9.87;7.77;;;12.50;99.90;;;;;;4180412;28;20215;-71
2022/08/16 04:43:59;;;;;;;20.67;19.27;;;12.50;99.90;;;;;;4179139;28;20321;-71
2022/08/16 04:45:59;;;;;;;7.73;7.03;;;12.40;99.90;;;;;;4181467;28;20341;-71
2022/08/16 04:48:00;;;;;;;10.50;9.33;;;12.40;99.90;;;;;;4172880;28;20540;-71
2022/08/16 04:50:06;;;;;;;10.50;9.53;;;12.40;99.90;;;;;;4164697;28;20187;-71
2022/08/16 04:52:07;;;;;;;75.90;26.53;;;12.40;99.90;;;;;;4163982;28;20193;-70
2022/08/16 04:54:08;;;;;;;12.50;10.40;;;12.40;99.90;;;;;;4165057;28;20502;-71
2022/08/16 04:56:09;;;;;;;24.87;23.17;;;12.50;99.90;;;;;;4164737;28;21111;-70
2022/08/16 04:58:09;;;;;;;20.07;18.67;;;12.50;99.90;;;;;;4164143;28;20188;-70
2022/08/16 05:00:18;;;;;;;21.50;19.80;;;12.50;99.90;;;;;;4162342;28;20196;-71
2022/08/16 05:02:18;;;;;;;15.07;10.50;;;12.50;99.90;;;;;;4164048;28;20235;-71
2022/08/16 05:04:19;;;;;;;9.70;8.67;;;12.50;99.90;;;;;;4162961;28;20217;-71
2022/08/16 05:06:20;;;;;;;12.70;11.43;;;12.50;99.90;;;;;;4164532;28;20188;-71
2022/08/16 05:08:22;;;;;;;12.87;11.73;;;12.40;99.90;;;;;;4164108;28;20185;-71
2022/08/16 05:10:22;;;;;;;11.40;9.90;;;12.40;99.90;;;;;;4163680;28;20654;-70
2022/08/16 05:12:23;;;;;;;9.20;8.30;;;12.40;99.90;;;;;;4164122;28;20295;-70
2022/08/16 05:14:23;;;;;;;23.93;22.27;;;12.50;99.90;;;;;;4164173;28;20886;-70
2022/08/16 05:16:27;;;;;;;29.47;27.60;;;12.60;99.90;;;;;;4164136;28;20181;-71
2022/08/16 05:18:28;;;;;;;15.17;13.87;;;12.70;99.90;;;;;;4162929;28;20201;-71
2022/08/16 05:20:28;;;;;;;21.87;20.17;;;12.70;99.90;;;;;;4169766;28;20301;-71
2022/08/16 05:22:29;;;;;;;13.67;12.47;;;12.80;99.90;;;;;;4180594;28;20653;-71
2022/08/16 05:24:30;;;;;;;22.47;20.70;;;12.90;99.90;;;;;;4179408;28;20268;-71
2022/08/16 05:26:31;;;;;;;14.90;13.60;;;12.90;99.90;;;;;;4181163;28;20667;-71
2022/08/16 05:28:32;;;;;;;16.60;15.10;;;12.90;99.90;;;;;;4182061;28;20181;-71
2022/08/16 05:30:32;;;;;;;16.47;15.23;;;13.00;99.90;;;;;;4179902;28;20275;-72
2022/08/16 05:32:34;;;;;;;16.40;14.90;;;13.00;99.90;;;;;;4180756;28;20188;-71
2022/08/16 05:34:35;;;;;;;15.17;13.93;;;13.00;99.90;;;;;;4180623;28;20176;-71
2022/08/16 05:36:36;;;;;;;26.53;24.53;;;13.00;99.90;;;;;;4180729;28;20184;-71
2022/08/16 05:38:36;;;;;;;30.07;27.67;;;13.10;99.90;;;;;;4180427;28;20707;-71
2022/08/16 05:40:37;;;;;;;25.67;23.67;;;13.10;99.90;;;;;;4180511;28;20191;-71
2022/08/16 05:42:38;;;;;;;35.33;32.63;;;13.20;99.90;;;;;;4180813;28;20195;-71
2022/08/16 05:44:38;;;;;;;65.50;60.60;;;13.30;99.90;;;;;;4179553;28;20816;-74
2022/08/16 05:46:40;;;;;;;23.67;21.93;;;13.30;99.90;;;;;;4178529;28;20184;-75
2022/08/16 05:48:41;;;;;;;15.10;13.70;;;13.30;99.90;;;;;;4177756;28;20204;-72
2022/08/16 05:50:41;;;;;;;19.60;18.00;;;13.40;99.90;;;;;;4176738;28;20184;-71
2022/08/16 05:52:42;;;;;;;55.10;49.30;;;13.40;99.90;;;;;;4177535;28;20204;-71
2022/08/16 05:54:43;;;;;;;26.07;24.17;;;13.50;99.90;;;;;;4179025;28;20185;-71
2022/08/16 05:56:47;;;;;;;32.37;29.83;;;13.60;99.90;;;;;;4181874;28;20195;-71
2022/08/16 05:58:47;;;;;;;16.73;15.30;;;13.60;99.90;;;;;;4182034;28;20188;-71
2022/08/16 06:00:48;;;;;;;61.63;55.80;;;13.70;99.90;;;;;;4180790;28;20298;-70
2022/08/16 06:02:48;;;;;;;48.83;45.70;;;13.70;99.90;;;;;;4181540;28;20204;-70
2022/08/16 06:04:49;;;;;;;22.43;20.80;;;13.80;99.90;;;;;;4181959;28;20222;-70
2022/08/16 06:06:50;;;;;;;43.83;40.77;;;13.80;99.90;;;;;;4181985;28;20233;-71
2022/08/16 06:08:50;;;;;;;23.63;21.53;;;13.90;99.90;;;;;;4181700;28;20665;-71
2022/08/16 06:10:51;;;;;;;106.23;65.27;;;13.90;99.90;;;;;;4181283;28;20484;-71
2022/08/16 06:12:52;;;;;;;45.53;40.40;;;13.90;99.90;;;;;;4180587;28;20207;-71
2022/08/16 06:14:56;;;;;;;94.90;51.53;;;14.00;99.90;;;;;;4181632;28;20180;-70
2022/08/16 06:16:56;;;;;;;56.27;51.50;;;14.10;99.90;;;;;;4181629;28;20184;-70
2022/08/16 06:18:57;;;;;;;25.47;23.37;;;14.10;99.90;;;;;;4181951;28;20180;-70
2022/08/16 06:20:57;;;;;;;89.17;77.33;;;14.10;99.90;;;;;;4180891;28;20192;-70
2022/08/16 06:22:58;;;;;;;62.73;58.73;;;14.30;99.90;;;;;;4182289;28;20210;-70
2022/08/16 06:24:59;;;;;;;44.83;41.57;;;14.40;99.90;;;;;;4180638;28;20250;-71
2022/08/16 06:26:59;;;;;;;17.93;16.47;;;14.40;99.90;;;;;;4182276;28;21004;-70
2022/08/16 06:29:00;;;;;;;20.00;18.47;;;14.60;99.90;;;;;;4181977;28;20191;-72
2022/08/16 06:31:01;;;;;;;260.67;90.47;;;14.60;99.90;;;;;;4181194;28;20277;-71
2022/08/16 06:33:02;;;;;;;83.67;77.30;;;14.70;99.90;;;;;;4181508;28;20643;-71
2022/08/16 06:35:04;;;;;;;296.53;84.27;;;14.80;99.90;;;;;;4181294;28;20187;-71
2022/08/16 06:37:05;;;;;;;21.50;19.53;;;15.00;99.90;;;;;;4181154;28;20723;-72
2022/08/16 06:39:06;;;;;;;103.80;95.97;;;15.30;99.40;;;;;;4181124;28;20192;-71
2022/08/16 06:41:08;;;;;;;33.17;30.47;;;15.50;98.10;;;;;;4180780;28;20535;-71
2022/08/16 06:43:09;;;;;;;25.57;22.87;;;15.70;97.70;;;;;;4181414;28;20204;-71
2022/08/16 06:45:09;;;;;;;39.47;36.17;;;15.80;96.70;;;;;;4181342;28;20598;-71
2022/08/16 06:47:11;;;;;;;31.87;28.97;;;16.00;96.40;;;;;;4179680;28;20250;-72
2022/08/16 06:49:12;;;;;;;88.60;82.53;;;16.20;95.80;;;;;;4167288;28;20275;-72
2022/08/16 06:51:13;;;;;;;501.93;117.53;;;16.30;95.20;;;;;;4164528;28;20181;-72
2022/08/16 06:53:13;;;;;;;636.63;140.23;;;16.60;94.40;;;;;;4165199;28;20253;-72
2022/08/16 06:55:15;;;;;;;86.47;53.07;;;16.90;93.60;;;;;;4164631;28;20189;-72
2022/08/16 06:57:16;;;;;;;1090.13;178.73;;;17.30;91.90;;;;;;4164860;28;20177;-71
2022/08/16 06:59:17;;;;;;;359.73;115.60;;;17.50;90.70;;;;;;4164563;28;20200;-72
2022/08/16 07:01:19;;;;;;;473.37;121.47;;;17.80;89.10;;;;;;4162616;28;20193;-71
2022/08/16 07:03:19;;;;;;;1708.80;306.73;;;17.90;87.80;;;;;;4164440;28;20220;-71
2022/08/16 07:05:20;;;;;;;84.23;53.33;;;18.10;86.50;;;;;;4164901;28;20177;-71
2022/08/16 07:07:21;;;;;;;166.50;71.70;;;18.20;84.80;;;;;;4163716;28;20215;-72
2022/08/16 07:09:21;;;;;;;148.30;76.23;;;18.40;84.40;;;;;;4164787;28;20200;-71
2022/08/16 07:11:25;;;;;;;1447.60;207.50;;;18.40;83.10;;;;;;4163874;28;20181;-71
2022/08/16 07:13:26;;;;;;;488.97;135.47;;;18.50;82.70;;;;;;4164501;28;20780;-71
2022/08/16 07:15:26;;;;;;;771.00;158.80;;;18.70;82.10;;;;;;4164333;28;20189;-71
2022/08/16 07:17:27;;;;;;;1504.03;285.67;;;18.70;80.50;;;;;;4164557;28;20184;-71
2022/08/16 07:19:32;;;;;;;529.60;118.70;;;18.80;79.60;;;;;;4164381;28;20607;-71
2022/08/16 07:21:33;;;;;;;367.00;94.73;;;19.00;78.10;;;;;;4164245;28;20205;-71
2022/08/16 07:23:34;;;;;;;461.73;128.37;;;19.00;75.10;;;;;;4164528;28;20255;-71
2022/08/16 07:25:35;;;;;;;58.27;53.03;;;19.20;74.60;;;;;;4166153;28;20587;-71
2022/08/16 07:27:36;;;;;;;470.57;112.33;;;19.20;73.30;;;;;;4180428;28;20234;-72
2022/08/16 07:29:37;;;;;;;1474.43;214.33;;;19.30;72.70;;;;;;4181767;28;20279;-71
2022/08/16 07:31:38;;;;;;;1473.60;234.43;;;19.40;71.80;;;;;;4181304;28;20229;-71
2022/08/16 07:33:39;;;;;;;385.53;107.20;;;19.60;69.80;;;;;;4181963;28;20193;-71
2022/08/16 07:35:40;;;;;;;389.07;105.40;;;19.50;70.50;;;;;;4181130;28;20184;-71
2022/08/16 07:37:41;;;;;;;795.00;154.47;;;19.70;70.00;;;;;;4180989;28;20195;-71
2022/08/16 07:39:41;;;;;;;1192.47;215.53;;;19.90;67.80;;;;;;4180618;28;20197;-71
2022/08/16 07:41:43;;;;;;;632.13;142.53;;;19.80;67.50;;;;;;4180307;28;20184;-70
2022/08/16 07:43:44;;;;;;;204.43;80.70;;;19.90;68.00;;;;;;4179508;28;20759;-71
2022/08/16 07:45:44;;;;;;;1014.10;175.00;;;19.80;66.80;;;;;;4180472;28;20177;-71
2022/08/16 07:47:45;;;;;;;837.47;145.43;;;20.00;66.00;;;;;;4180970;28;20168;-70
2022/08/16 07:49:46;;;;;;;695.07;154.80;;;20.10;63.70;;;;;;4180787;28;20176;-71
2022/08/16 07:51:46;;;;;;;1150.83;227.77;;;20.20;63.30;;;;;;4180148;28;20244;-71
2022/08/16 07:53:50;;;;;;;986.60;132.23;;;20.20;64.20;;;;;;4180911;28;20213;-70
2022/08/16 07:55:51;;;;;;;284.77;80.40;;;20.30;64.30;;;;;;4180571;28;20184;-72
2022/08/16 07:57:52;;;;;;;1346.80;196.73;;;20.70;62.90;;;;;;4180953;28;20263;-70
2022/08/16 07:59:53;;;;;;;1689.80;234.07;;;20.90;60.80;;;;;;4180573;28;20181;-71
2022/08/16 08:01:54;;;;;;;789.90;134.47;;;21.00;59.90;;;;;;4178730;28;20188;-71
2022/08/16 08:03:56;;;;;;;358.13;83.43;;;21.10;59.50;;;;;;4180805;28;20232;-71
2022/08/16 08:05:56;;;;;;;571.37;105.40;;;21.30;59.10;;;;;;4179471;28;20179;-70
2022/08/16 08:07:57;;;;;;;76.67;25.60;;;21.50;57.30;;;;;;4179318;28;20179;-71
2022/08/16 08:09:58;;;;;;;302.53;163.80;;;21.80;57.10;;;;;;4180636;28;20180;-70
2022/08/16 08:11:59;;;;;;;807.67;131.73;;;21.90;55.50;;;;;;4178880;28;20190;-68
2022/08/16 08:14:01;;;;;;;133.50;52.80;;;22.10;55.40;;;;;;4180823;28;20226;-71
2022/08/16 08:16:02;;;;;;;546.53;104.17;;;22.30;54.50;;;;;;4162741;28;20711;-70
2022/08/16 08:18:03;;;;;;;210.40;74.10;;;22.10;54.60;;;;;;4195258;28;20307;-70
2022/08/16 08:20:09;;;;;;;1058.03;196.07;;;22.10;53.80;;;;;;4178418;28;20692;-71
2022/08/16 08:22:10;;;;;;;1398.03;235.37;;;21.90;53.80;;;;;;4178508;28;20207;-70
2022/08/16 08:24:13;;;;;;;981.40;167.83;;;21.90;53.80;;;;;;4179516;28;20797;-69
2022/08/16 08:26:14;;;;;;;353.13;82.47;;;21.80;54.40;;;;;;4163132;28;20630;-70
2022/08/16 08:28:17;;;;;;;143.00;45.30;;;21.90;54.20;;;;;;4180180;28;20180;-71
2022/08/16 08:30:17;;;;;;;490.17;96.93;;;21.90;53.20;;;;;;4178302;28;20184;-70
2022/08/16 08:32:20;;;;;;;426.13;82.30;;;22.20;53.50;;;;;;4178992;28;20180;-69
2022/08/16 08:34:21;;;;;;;46.87;29.97;;;22.60;52.40;;;;;;4178910;28;20232;-70
2022/08/16 08:36:29;;;;;;;1477.43;195.43;;;22.90;50.70;;;;;;4180427;28;20253;-70
2022/08/16 08:38:30;;;;;;;968.70;169.80;;;22.60;50.60;;;;;;4162506;28;20738;-69
2022/08/16 08:40:31;;;;;;;614.07;115.10;;;22.00;49.60;;;;;;4179273;28;20180;-69
2022/08/16 08:42:32;;;;;;;1337.30;210.57;;;21.90;51.20;;;;;;4180183;28;20230;-69
2022/08/16 08:44:33;;;;;;;166.73;42.03;;;22.00;51.20;;;;;;4179024;28;20703;-70
2022/08/16 08:46:34;;;;;;;165.63;42.23;;;22.20;51.40;;;;;;4180266;28;20180;-70
2022/08/16 08:48:35;;;;;;;1138.63;168.63;;;22.50;50.30;;;;;;4178763;28;20196;-69
2022/08/16 08:50:36;;;;;;;121.30;47.90;;;22.80;49.10;;;;;;4178094;28;20191;-70
2022/08/16 08:52:37;;;;;;;555.00;101.27;;;22.40;47.60;;;;;;4180006;28;20671;-69
2022/08/16 08:54:37;;;;;;;282.97;60.90;;;22.10;48.70;;;;;;4179898;28;20187;-69
2022/08/16 08:56:40;;;;;;;349.87;76.20;;;22.00;48.60;;;;;;4178182;28;20660;-69
2022/08/16 08:58:40;;;;;;;7.20;6.60;;;21.90;49.30;;;;;;4177485;28;20267;-69
2022/08/16 09:00:41;;;;;;;139.73;36.23;;;22.10;48.80;;;;;;4178289;28;20188;-69
2022/08/16 09:02:43;;;;;;;243.47;49.57;;;22.30;47.60;;;;;;4179872;28;20176;-69
2022/08/16 09:04:45;;;;;;;449.40;83.33;;;22.40;46.60;;;;;;4179920;28;20558;-69
2022/08/16 09:06:46;;;;;;;292.40;82.03;;;22.70;46.80;;;;;;4178835;28;20173;-69
2022/08/16 09:08:46;;;;;;;115.87;54.43;;;23.10;44.50;;;;;;4180069;28;20205;-69
2022/08/16 09:10:47;;;;;;;121.87;80.70;;;23.10;44.40;;;;;;4177779;28;20753;-69
2022/08/16 09:12:48;;;;;;;16.27;14.80;;;23.50;44.90;;;;;;4179989;28;20188;-69
2022/08/16 09:14:49;;;;;;;31.53;19.70;;;23.30;44.60;;;;;;4180207;28;20616;-69
2022/08/16 09:16:50;;;;;;;71.83;27.70;;;23.40;44.30;;;;;;4178304;28;20270;-69
2022/08/16 09:18:51;;;;;;;1226.73;280.07;;;23.70;44.70;;;;;;4178650;28;20180;-69
2022/08/16 09:20:52;;;;;;;528.30;91.37;;;23.80;43.20;;;;;;4179482;28;20237;-69
2022/08/16 09:22:54;;;;;;;1930.07;412.10;;;24.00;43.00;;;;;;4179970;28;20278;-68
2022/08/16 09:24:54;;;;;;;15.63;14.63;;;24.00;42.70;;;;;;4179048;28;20677;-69
2022/08/16 09:26:55;;;;;;;90.70;53.07;;;23.50;43.40;;;;;;4179397;28;20235;-69
2022/08/16 09:28:56;;;;;;;128.80;38.87;;;23.30;44.20;;;;;;4178166;28;20656;-69
2022/08/16 09:30:57;;;;;;;24.40;17.43;;;23.40;44.40;;;;;;4180731;28;20275;-69
2022/08/16 09:32:58;;;;;;;32.13;25.23;;;23.60;44.20;;;;;;4182522;28;20196;-69
2022/08/16 09:35:00;;;;;;;15.07;13.47;;;24.10;42.40;;;;;;4182397;28;20561;-69
2022/08/16 09:37:01;;;;;;;30.33;19.43;;;24.10;42.30;;;;;;4181437;28;20238;-69
2022/08/16 09:39:02;;;;;;;103.10;39.17;;;24.30;42.00;;;;;;4182422;28;20176;-68
2022/08/16 09:41:07;;;;;;;62.43;32.37;;;24.70;41.20;;;;;;4181608;28;20185;-68
2022/08/16 09:43:14;;;;;;;78.37;34.97;;;24.70;40.20;;;;;;4182302;28;20204;-68
2022/08/16 09:45:15;;;;;;;227.93;57.47;;;23.80;41.80;;;;;;4183430;28;20439;-69
2022/08/16 09:47:16;;;;;;;414.97;81.27;;;23.70;41.90;;;;;;4183864;28;20177;-67
2022/08/16 09:49:17;;;;;;;72.77;32.40;;;23.90;41.60;;;;;;4184133;28;20176;-68
2022/08/16 09:51:18;;;;;;;972.43;221.57;;;24.40;40.50;;;;;;4182185;28;20245;-68
2022/08/16 09:53:22;;;;;;;119.80;46.63;;;24.70;40.10;;;;;;4182764;28;20200;-68
2022/08/16 09:55:22;;;;;;;533.90;112.17;;;24.90;40.50;;;;;;4183004;28;20180;-68
2022/08/16 09:57:23;;;;;;;12.53;11.53;;;24.70;39.80;;;;;;4182506;28;20176;-67
2022/08/16 09:59:24;;;;;;;7.03;6.43;;;24.80;39.30;;;;;;4181304;28;20188;-69
2022/08/16 10:01:25;;;;;;;11.33;10.63;;;25.00;39.20;;;;;;4181898;28;20195;-68
2022/08/16 10:03:26;;;;;;;23.67;21.20;;;25.70;38.20;;;;;;4183832;28;20215;-68
2022/08/16 10:05:27;;;;;;;255.20;52.87;;;25.40;38.20;;;;;;4183418;28;20657;-68
2022/08/16 10:07:31;;;;;;;277.67;116.30;;;25.90;38.00;;;;;;4183642;28;20180;-68
2022/08/16 10:09:32;;;;;;;585.10;120.63;;;26.40;36.80;;;;;;4183373;28;20187;-68
2022/08/16 10:13:54;;;;;;;42.90;39.73;;;25.90;36.50;;;;;;4183723;28;20234;-68
2022/08/16 10:15:58;;;;;;;259.80;72.33;;;25.60;38.10;;;;;;4183589;28;20196;-68